createdAt,value
2023-05-19T00:02:12.309Z,8.51
2023-05-19T00:04:58.283Z,8.48
2023-05-19T00:07:45.329Z,8.43
2023-05-19T00:10:33.275Z,8.39
2023-05-19T00:13:19.714Z,8.35
2023-05-19T00:16:06.321Z,8.31
2023-05-19T00:18:51.815Z,8.26
2023-05-19T00:21:40.472Z,8.26
2023-05-19T00:24:25.928Z,8.22
2023-05-19T00:27:11.338Z,8.14
2023-05-19T00:29:57.525Z,8.12
2023-05-19T00:32:42.861Z,8.07
2023-05-19T00:35:28.117Z,8.08
2023-05-19T00:38:13.285Z,8.07
2023-05-19T00:41:00.248Z,8.05
2023-05-19T00:43:46.838Z,8.05
2023-05-19T00:46:32.341Z,8.03
2023-05-19T00:49:17.609Z,8.03
2023-05-19T00:52:06.037Z,8.00
2023-05-19T00:54:53.264Z,7.98
2023-05-19T00:57:38.888Z,7.96
2023-05-19T01:00:24.788Z,7.94
2023-05-19T01:03:11.430Z,7.88
2023-05-19T01:06:01.715Z,7.89
2023-05-19T01:08:47.428Z,7.86
2023-05-19T01:11:32.729Z,7.85
2023-05-19T01:14:20.493Z,7.86
2023-05-19T01:17:15.227Z,7.83
2023-05-19T01:20:11.053Z,7.82
2023-05-19T01:23:36.704Z,7.79
2023-05-19T01:26:54.731Z,7.74
2023-05-19T01:30:25.394Z,7.73
2023-05-19T01:33:15.217Z,7.69
2023-05-19T01:36:04.012Z,7.66
2023-05-19T01:38:56.024Z,7.67
2023-05-19T01:41:42.442Z,7.66
2023-05-19T01:44:28.804Z,7.63
2023-05-19T01:47:15.114Z,7.58
2023-05-19T01:50:01.115Z,7.58
2023-05-19T01:52:46.389Z,7.54
2023-05-19T01:55:31.856Z,7.50
2023-05-19T01:58:39.683Z,7.44
2023-05-19T02:01:48.191Z,7.42
2023-05-19T02:04:48.101Z,7.41
2023-05-19T02:08:01.615Z,7.40
2023-05-19T02:11:07.652Z,7.37
2023-05-19T02:14:01.158Z,7.30
2023-05-19T02:16:49.145Z,7.27
2023-05-19T02:19:39.113Z,7.23
2023-05-19T02:22:24.618Z,7.21
2023-05-19T02:25:11.517Z,7.19
2023-05-19T02:27:58.594Z,7.19
2023-05-19T02:30:43.893Z,7.17
2023-05-19T02:33:30.400Z,7.13
2023-05-19T02:36:15.979Z,7.15
2023-05-19T02:39:04.718Z,7.14
2023-05-19T02:41:50.400Z,7.13
2023-05-19T02:44:36.411Z,7.14
2023-05-19T02:47:22.164Z,7.12
2023-05-19T02:50:08.752Z,7.10
2023-05-19T02:52:54.304Z,7.09
2023-05-19T02:55:39.621Z,7.12
2023-05-19T02:58:24.836Z,7.07
2023-05-19T03:01:11.101Z,7.07
2023-05-19T03:03:56.340Z,7.03
2023-05-19T03:06:42.425Z,6.99
2023-05-19T03:09:27.790Z,6.95
2023-05-19T03:12:12.980Z,6.93
2023-05-19T03:14:58.364Z,6.90
2023-05-19T03:17:43.876Z,6.85
2023-05-19T03:20:30.581Z,6.83
2023-05-19T03:23:16.428Z,6.81
2023-05-19T03:26:01.659Z,6.79
2023-05-19T03:28:46.975Z,6.77
2023-05-19T03:31:32.489Z,6.75
2023-05-19T03:34:18.103Z,6.75
2023-05-19T03:37:03.395Z,6.78
2023-05-19T03:39:49.144Z,6.79
2023-05-19T03:42:34.350Z,6.80
2023-05-19T03:45:20.174Z,6.82
2023-05-19T03:48:09.187Z,6.85
2023-05-19T03:51:17.580Z,6.89
2023-05-19T03:54:04.562Z,6.91
2023-05-19T03:56:50.269Z,6.96
2023-05-19T03:59:37.215Z,6.98
2023-05-19T04:02:23.000Z,7.05
2023-05-19T04:05:08.564Z,7.22
2023-05-19T04:07:55.533Z,7.27
2023-05-19T04:10:41.867Z,7.29
2023-05-19T04:13:27.295Z,7.34
2023-05-19T04:16:15.352Z,7.37
2023-05-19T04:19:01.288Z,7.41
2023-05-19T04:21:46.988Z,7.46
2023-05-19T04:24:33.617Z,7.50
2023-05-19T04:27:19.506Z,7.54
2023-05-19T04:30:06.552Z,7.55
2023-05-19T04:32:52.103Z,7.62
2023-05-19T04:35:38.226Z,7.69
2023-05-19T04:38:23.742Z,7.81
2023-05-19T04:41:10.600Z,7.87
2023-05-19T04:43:57.546Z,7.91
2023-05-19T04:46:48.422Z,8.43
2023-05-19T04:49:40.078Z,8.72
2023-05-19T04:52:28.953Z,8.65
2023-05-19T04:55:14.476Z,8.71
2023-05-19T04:58:00.963Z,9.14
2023-05-19T05:00:46.958Z,9.47
2023-05-19T05:03:34.552Z,9.37
2023-05-19T05:06:23.452Z,9.12
2023-05-19T05:09:11.556Z,9.53
2023-05-19T05:11:57.500Z,9.77
2023-05-19T05:14:43.806Z,10.06
2023-05-19T05:17:30.330Z,10.50
2023-05-19T05:20:18.887Z,10.80
2023-05-19T05:23:05.304Z,10.64
2023-05-19T05:25:53.009Z,12.00
2023-05-19T05:28:38.674Z,14.28
2023-05-19T05:31:24.731Z,15.87
2023-05-19T05:34:10.421Z,16.71
2023-05-19T05:36:58.503Z,17.76
2023-05-19T05:39:44.135Z,18.51
2023-05-19T05:42:29.772Z,18.89
2023-05-19T05:45:15.921Z,19.07
2023-05-19T05:48:02.378Z,19.44
2023-05-19T05:50:50.875Z,19.58
2023-05-19T05:53:49.627Z,19.19
2023-05-19T05:56:37.142Z,19.49
2023-05-19T05:59:24.679Z,19.94
2023-05-19T06:02:10.289Z,19.91
2023-05-19T06:04:55.958Z,18.34
2023-05-19T06:07:44.177Z,15.98
2023-05-19T06:10:32.751Z,14.53
2023-05-19T06:13:24.162Z,13.69
2023-05-19T06:16:09.936Z,13.20
2023-05-19T06:18:59.721Z,12.89
2023-05-19T06:21:44.934Z,12.72
2023-05-19T06:24:30.977Z,12.66
2023-05-19T06:27:16.338Z,12.61
2023-05-19T06:30:02.833Z,12.64
2023-05-19T06:32:52.770Z,12.63
2023-05-19T06:35:39.090Z,12.66
2023-05-19T06:38:24.842Z,12.74
2023-05-19T06:41:10.124Z,12.87
2023-05-19T06:43:56.525Z,13.01
2023-05-19T06:46:41.915Z,13.16
2023-05-19T06:49:29.394Z,13.37
2023-05-19T06:52:14.736Z,13.66
2023-05-19T06:55:00.154Z,13.87
2023-05-19T06:57:45.551Z,13.89
2023-05-19T07:00:32.543Z,13.90
2023-05-19T07:03:22.454Z,13.88
2023-05-19T07:06:10.871Z,13.89
2023-05-19T07:08:56.690Z,13.86
2023-05-19T07:11:42.968Z,14.00
2023-05-19T07:14:29.594Z,14.05
2023-05-19T07:17:15.713Z,14.14
2023-05-19T07:20:06.773Z,14.15
2023-05-19T07:22:52.300Z,14.16
2023-05-19T07:25:37.750Z,14.25
2023-05-19T07:28:23.088Z,14.48
2023-05-19T07:31:08.473Z,14.72
2023-05-19T07:33:54.777Z,14.79
2023-05-19T07:36:41.482Z,14.80
2023-05-19T07:39:29.643Z,14.78
2023-05-19T07:42:15.365Z,14.90
2023-05-19T07:45:01.289Z,14.95
2023-05-19T07:47:46.885Z,15.09
2023-05-19T07:50:32.252Z,15.28
2023-05-19T07:53:19.628Z,15.38
2023-05-19T07:56:05.411Z,15.57
2023-05-19T07:58:51.768Z,15.53
2023-05-19T08:01:37.421Z,15.62
2023-05-19T08:04:22.867Z,15.80
2023-05-19T08:07:08.180Z,15.92
2023-05-19T08:09:53.654Z,16.04
2023-05-19T08:12:39.031Z,16.12
2023-05-19T08:15:25.324Z,16.19
2023-05-19T08:18:10.597Z,16.29
2023-05-19T08:20:56.115Z,16.35
2023-05-19T08:23:41.820Z,16.41
2023-05-19T08:26:27.903Z,16.57
2023-05-19T08:29:13.517Z,16.69
2023-05-19T08:31:58.672Z,16.86
2023-05-19T08:34:43.948Z,16.95
2023-05-19T08:37:29.333Z,17.04
2023-05-19T08:40:18.342Z,17.11
2023-05-19T08:43:03.836Z,17.27
2023-05-19T08:45:49.306Z,17.44
2023-05-19T08:48:37.340Z,17.61
2023-05-19T08:51:42.856Z,17.77
2023-05-19T08:54:45.873Z,17.67
2023-05-19T08:57:32.974Z,17.74
2023-05-19T09:00:20.721Z,17.93
2023-05-19T09:03:18.240Z,17.86
2023-05-19T09:06:08.912Z,18.09
2023-05-19T09:08:54.322Z,18.11
2023-05-19T09:11:39.593Z,18.13
2023-05-19T09:14:25.013Z,18.21
2023-05-19T09:17:10.537Z,18.34
2023-05-19T09:19:56.176Z,18.39
2023-05-19T09:22:47.496Z,18.53
2023-05-19T09:25:32.999Z,18.69
2023-05-19T09:28:30.437Z,18.84
2023-05-19T09:31:15.727Z,18.77
2023-05-19T09:34:01.559Z,18.76
2023-05-19T09:36:53.136Z,18.83
2023-05-19T09:39:38.850Z,18.85
2023-05-19T09:42:30.093Z,18.86
2023-05-19T09:45:16.466Z,18.85
2023-05-19T09:48:05.799Z,19.00
2023-05-19T09:50:54.320Z,19.04
2023-05-19T09:53:39.890Z,19.12
2023-05-19T09:56:34.555Z,19.43
2023-05-19T09:59:24.113Z,19.39
2023-05-19T10:02:20.738Z,19.32
2023-05-19T10:05:10.332Z,19.57
2023-05-19T10:07:55.968Z,19.60
2023-05-19T10:10:48.353Z,19.58
2023-05-19T10:13:39.995Z,19.74
2023-05-19T10:16:27.870Z,19.96
2023-05-19T10:19:17.220Z,19.99
2023-05-19T10:22:04.280Z,20.00
2023-05-19T10:24:52.210Z,19.91
2023-05-19T10:27:44.813Z,19.80
2023-05-19T10:30:35.845Z,19.97
2023-05-19T10:33:42.234Z,19.73
2023-05-19T10:36:47.641Z,19.38
2023-05-19T10:39:36.122Z,19.38
2023-05-19T10:42:44.894Z,19.53
2023-05-19T10:45:36.501Z,19.84
2023-05-19T10:48:23.008Z,20.18
2023-05-19T10:51:12.206Z,20.33
2023-05-19T10:54:12.259Z,20.60
2023-05-19T10:57:03.470Z,20.46
2023-05-19T10:59:52.365Z,20.44
2023-05-19T11:02:42.352Z,20.32
2023-05-19T11:05:30.009Z,20.38
2023-05-19T11:08:35.349Z,20.54
2023-05-19T11:11:23.329Z,20.48
2023-05-19T11:14:14.992Z,20.48
2023-05-19T11:17:00.968Z,20.56
2023-05-19T11:19:59.269Z,20.61
2023-05-19T11:23:04.558Z,20.55
2023-05-19T11:25:53.874Z,20.16
2023-05-19T11:28:40.781Z,20.17
2023-05-19T11:31:28.199Z,20.41
2023-05-19T11:34:18.008Z,20.63
2023-05-19T11:37:06.197Z,20.74
2023-05-19T11:39:53.117Z,20.43
2023-05-19T11:42:38.603Z,20.25
2023-05-19T11:45:29.405Z,20.46
2023-05-19T11:48:18.388Z,20.50
2023-05-19T11:51:07.332Z,20.76
2023-05-19T11:53:54.722Z,21.00
2023-05-19T11:56:41.687Z,21.09
2023-05-19T11:59:36.392Z,21.26
2023-05-19T12:02:26.098Z,21.51
2023-05-19T12:05:20.254Z,21.69
2023-05-19T12:08:06.293Z,21.47
2023-05-19T12:10:52.526Z,21.29
2023-05-19T12:13:38.624Z,21.37
2023-05-19T12:16:33.351Z,21.39
2023-05-19T12:19:19.120Z,21.52
2023-05-19T12:22:07.564Z,21.17
2023-05-19T12:24:53.506Z,21.11
2023-05-19T12:27:39.348Z,21.38
2023-05-19T12:30:33.186Z,21.65
2023-05-19T12:33:19.826Z,21.83
2023-05-19T12:36:06.318Z,21.92
2023-05-19T12:38:55.556Z,22.03
2023-05-19T12:41:40.756Z,21.92
2023-05-19T12:44:27.829Z,21.49
2023-05-19T12:47:20.242Z,21.06
2023-05-19T12:50:09.266Z,21.10
2023-05-19T12:52:54.604Z,21.18
2023-05-19T12:55:45.252Z,21.47
2023-05-19T12:58:34.208Z,21.12
2023-05-19T13:01:20.081Z,21.26
2023-05-19T13:04:06.866Z,21.46
2023-05-19T13:06:55.739Z,21.68
2023-05-19T13:09:41.291Z,21.78
2023-05-19T13:12:27.122Z,21.88
2023-05-19T13:15:12.413Z,22.07
2023-05-19T13:17:58.343Z,22.00
2023-05-19T13:20:46.441Z,22.04
2023-05-19T13:23:31.964Z,21.82
2023-05-19T13:26:17.559Z,21.50
2023-05-19T13:29:03.162Z,21.51
2023-05-19T13:31:48.562Z,21.50
2023-05-19T13:34:33.745Z,21.57
2023-05-19T13:37:19.066Z,21.39
2023-05-19T13:40:05.193Z,21.34
2023-05-19T13:42:50.695Z,21.40
2023-05-19T13:45:35.934Z,21.55
2023-05-19T13:48:21.386Z,21.63
2023-05-19T13:51:06.765Z,21.74
2023-05-19T13:53:51.966Z,21.71
2023-05-19T13:56:37.353Z,21.97
2023-05-19T13:59:23.110Z,22.16
2023-05-19T14:02:11.451Z,22.29
2023-05-19T14:05:02.641Z,21.77
2023-05-19T14:07:48.378Z,21.20
2023-05-19T14:10:34.109Z,21.14
2023-05-19T14:13:32.584Z,21.41
2023-05-19T14:16:21.977Z,21.78
2023-05-19T14:19:08.572Z,21.85
2023-05-19T14:21:54.057Z,22.13
2023-05-19T14:24:40.629Z,22.36
2023-05-19T14:27:28.524Z,22.56
2023-05-19T14:30:14.126Z,22.92
2023-05-19T14:32:59.562Z,22.64
2023-05-19T14:35:47.374Z,21.98
2023-05-19T14:38:32.845Z,21.69
2023-05-19T14:41:18.148Z,21.75
2023-05-19T14:44:05.984Z,21.91
2023-05-19T14:46:51.235Z,21.82
2023-05-19T14:49:36.605Z,21.88
2023-05-19T14:52:22.625Z,22.09
2023-05-19T14:55:11.066Z,22.29
2023-05-19T14:57:59.435Z,22.02
2023-05-19T15:00:44.590Z,21.72
2023-05-19T15:03:29.952Z,21.17
2023-05-19T15:06:15.171Z,21.28
2023-05-19T15:09:01.487Z,21.31
2023-05-19T15:11:47.052Z,21.56
2023-05-19T15:14:32.183Z,21.75
2023-05-19T15:17:19.720Z,21.96
2023-05-19T15:20:06.648Z,22.22
2023-05-19T15:22:52.041Z,22.37
2023-05-19T15:25:37.561Z,22.03
2023-05-19T15:28:23.055Z,21.48
2023-05-19T15:31:08.426Z,21.52
2023-05-19T15:33:53.761Z,21.77
2023-05-19T15:36:39.043Z,22.05
2023-05-19T15:39:24.450Z,22.12
2023-05-19T15:42:09.835Z,22.25
2023-05-19T15:44:55.004Z,22.51
2023-05-19T15:47:40.220Z,22.71
2023-05-19T15:50:26.742Z,22.92
2023-05-19T15:53:12.182Z,23.19
2023-05-19T15:55:57.519Z,23.48
2023-05-19T15:58:43.495Z,23.85
2023-05-19T16:01:29.376Z,23.41
2023-05-19T16:04:14.665Z,22.85
2023-05-19T16:07:00.305Z,22.55
2023-05-19T16:09:45.666Z,22.77
2023-05-19T16:12:31.529Z,23.05
2023-05-19T16:15:17.001Z,23.34
2023-05-19T16:18:02.089Z,23.79
2023-05-19T16:20:47.716Z,24.01
2023-05-19T16:23:33.081Z,24.14
2023-05-19T16:26:18.690Z,23.93
2023-05-19T16:29:04.422Z,23.44
2023-05-19T16:31:49.956Z,22.68
2023-05-19T16:34:35.713Z,21.97
2023-05-19T16:37:21.276Z,21.72
2023-05-19T16:40:07.496Z,22.14
2023-05-19T16:42:53.581Z,22.75
2023-05-19T16:45:38.749Z,23.05
2023-05-19T16:48:24.304Z,23.33
2023-05-19T16:51:09.463Z,23.57
2023-05-19T16:53:54.828Z,23.81
2023-05-19T16:56:40.147Z,23.95
2023-05-19T16:59:25.373Z,24.08
2023-05-19T17:02:10.782Z,24.08
2023-05-19T17:04:56.145Z,24.13
2023-05-19T17:07:41.398Z,23.95
2023-05-19T17:10:26.681Z,23.66
2023-05-19T17:13:11.974Z,23.66
2023-05-19T17:15:57.340Z,23.56
2023-05-19T17:18:43.780Z,23.48
2023-05-19T17:21:30.175Z,23.22
2023-05-19T17:24:16.357Z,23.15
2023-05-19T17:27:01.942Z,23.07
2023-05-19T17:29:47.510Z,23.15
2023-05-19T17:32:35.923Z,23.28
2023-05-19T17:35:21.468Z,23.14
2023-05-19T17:38:07.206Z,23.12
2023-05-19T17:40:53.517Z,22.77
2023-05-19T17:43:41.322Z,22.76
2023-05-19T17:46:26.923Z,22.82
2023-05-19T17:49:13.133Z,22.80
2023-05-19T17:51:58.795Z,22.94
2023-05-19T17:54:44.765Z,22.96
2023-05-19T17:57:33.114Z,22.80
2023-05-19T18:00:19.477Z,22.74
2023-05-19T18:03:06.210Z,22.74
2023-05-19T18:05:52.123Z,22.60
2023-05-19T18:08:38.546Z,22.39
2023-05-19T18:11:24.295Z,22.28
2023-05-19T18:14:10.174Z,22.11
2023-05-19T18:16:55.626Z,22.05
2023-05-19T18:19:41.087Z,22.08
2023-05-19T18:22:26.675Z,21.99
2023-05-19T18:25:12.019Z,21.78
2023-05-19T18:27:57.394Z,21.57
2023-05-19T18:30:43.738Z,21.44
2023-05-19T18:33:31.044Z,21.27
2023-05-19T18:36:16.629Z,21.14
2023-05-19T18:39:02.143Z,20.98
2023-05-19T18:41:47.835Z,20.90
2023-05-19T18:44:33.899Z,20.60
2023-05-19T18:47:19.766Z,20.29
2023-05-19T18:50:09.307Z,19.93
2023-05-19T18:52:54.816Z,19.53
2023-05-19T18:55:40.258Z,19.15
2023-05-19T18:58:25.454Z,18.85
2023-05-19T19:01:10.938Z,18.58
2023-05-19T19:03:55.962Z,18.33
2023-05-19T19:06:42.050Z,18.08
2023-05-19T19:09:28.341Z,17.86
2023-05-19T19:12:13.572Z,17.66
2023-05-19T19:14:58.836Z,17.51
2023-05-19T19:17:45.267Z,17.37
2023-05-19T19:20:30.692Z,17.23
2023-05-19T19:23:16.181Z,17.05
2023-05-19T19:26:01.872Z,16.93
2023-05-19T19:28:47.357Z,16.80
2023-05-19T19:31:33.428Z,16.69
2023-05-19T19:34:19.896Z,16.59
2023-05-19T19:37:11.125Z,16.48
2023-05-19T19:39:59.555Z,16.40
2023-05-19T19:42:47.835Z,16.32
2023-05-19T19:45:39.022Z,16.27
2023-05-19T19:48:31.266Z,16.18
2023-05-19T19:51:25.138Z,16.09
2023-05-19T19:54:24.882Z,16.01
2023-05-19T19:57:12.797Z,15.92
2023-05-19T20:00:04.294Z,15.83
2023-05-19T20:03:02.990Z,15.77
2023-05-19T20:05:50.037Z,15.70
2023-05-19T20:08:35.927Z,15.65
2023-05-19T20:11:23.119Z,15.62
2023-05-19T20:14:08.747Z,15.53
2023-05-19T20:16:53.829Z,15.48
2023-05-19T20:19:39.102Z,15.43
2023-05-19T20:22:24.474Z,15.41
2023-05-19T20:25:09.914Z,15.36
2023-05-19T20:27:55.188Z,15.31
2023-05-19T20:30:41.067Z,15.30
2023-05-19T20:33:26.289Z,15.27
2023-05-19T20:36:11.678Z,15.23
2023-05-19T20:38:56.799Z,15.17
2023-05-19T20:41:42.138Z,15.13
2023-05-19T20:44:27.287Z,15.06
2023-05-19T20:47:12.642Z,15.00
2023-05-19T20:49:58.821Z,14.94
2023-05-19T20:52:44.385Z,14.88
2023-05-19T20:55:29.667Z,14.80
2023-05-19T20:58:14.980Z,14.72
2023-05-19T21:01:00.536Z,14.65
2023-05-19T21:03:45.870Z,14.57
2023-05-19T21:06:31.782Z,14.50
2023-05-19T21:09:17.148Z,14.43
2023-05-19T21:12:02.871Z,14.37
2023-05-19T21:14:48.260Z,14.33
2023-05-19T21:17:33.407Z,14.27
2023-05-19T21:20:18.830Z,14.22
2023-05-19T21:23:04.637Z,14.17
2023-05-19T21:25:50.682Z,14.10
2023-05-19T21:28:36.365Z,14.04
2023-05-19T21:31:21.709Z,13.99
2023-05-19T21:34:09.841Z,13.98
2023-05-19T21:36:55.331Z,13.95
2023-05-19T21:39:40.526Z,13.93
2023-05-19T21:42:26.070Z,13.91
2023-05-19T21:45:11.665Z,13.89
2023-05-19T21:47:57.131Z,13.88
2023-05-19T21:50:42.301Z,13.87
2023-05-19T21:53:27.668Z,13.86
2023-05-19T21:56:12.863Z,13.82
2023-05-19T21:58:58.118Z,13.84
2023-05-19T22:01:43.391Z,13.87
2023-05-19T22:04:31.524Z,13.90
2023-05-19T22:07:16.775Z,13.94
2023-05-19T22:10:02.722Z,13.97
2023-05-19T22:12:47.959Z,13.98
2023-05-19T22:15:33.197Z,13.95
2023-05-19T22:18:18.447Z,13.91
2023-05-19T22:21:03.862Z,13.87
2023-05-19T22:23:49.235Z,13.82
2023-05-19T22:26:35.785Z,13.81
2023-05-19T22:29:21.167Z,13.81
2023-05-19T22:32:11.769Z,13.76
2023-05-19T22:34:57.188Z,13.73
2023-05-19T22:37:42.485Z,13.74
2023-05-19T22:40:28.115Z,13.73
2023-05-19T22:43:13.228Z,13.74
2023-05-19T22:45:58.650Z,13.75
2023-05-19T22:48:43.854Z,13.79
2023-05-19T22:51:29.056Z,13.80
2023-05-19T22:54:14.524Z,13.79
2023-05-19T22:56:59.764Z,13.81
2023-05-19T22:59:45.395Z,13.81
2023-05-19T23:02:30.837Z,13.76
2023-05-19T23:05:16.320Z,13.70
2023-05-19T23:08:01.946Z,13.69
2023-05-19T23:10:47.128Z,13.64
2023-05-19T23:13:32.445Z,13.58
2023-05-19T23:16:17.747Z,13.49
2023-05-19T23:19:03.171Z,13.42
2023-05-19T23:21:49.204Z,13.40
2023-05-19T23:24:34.650Z,13.40
2023-05-19T23:27:19.996Z,13.35
2023-05-19T23:30:06.175Z,13.30
2023-05-19T23:32:52.975Z,13.28
2023-05-19T23:35:39.557Z,13.26
2023-05-19T23:38:25.633Z,13.16
2023-05-19T23:41:11.108Z,13.08
2023-05-19T23:43:56.566Z,13.02
2023-05-19T23:46:41.958Z,12.98
2023-05-19T23:49:27.289Z,12.93
2023-05-19T23:52:14.082Z,12.86
2023-05-19T23:54:59.385Z,12.79
2023-05-19T23:57:44.702Z,12.77
